Coral Canyon GC
1925 N Canyon Greens Drive, Washington
Last Weather Update:09/29/2011 11:00:00 PM
Date
ETo
ETc
Rain
Irrigation
Req
Temp
Max
Temp
Min
Temp
Avg
Avg RH
Avg Wind
Avg Solar
inches
inches
incehs
inches
F
F
F
%
%
watts/m2
08/01/2011 0.24" 0.21" 0.00" 0.21" 95.3° 70.9° 82.2° 51.5% 1.9 MPH 302.2w/m2
08/02/2011 0.23" 0.20" 0.00" 0.20" 98.6° 70.2° 85.7° 34.6% 2.3 MPH 275.7w/m2
08/03/2011 0.25" 0.22" 0.00" 0.22" 100.8° 70.9° 86.6° 28.9% 2.8 MPH 287.3w/m2
08/04/2011 0.28" 0.24" 0.00" 0.24" 101.6° 66.9° 86.5° 28.8% 3.4 MPH 317.4w/m2
08/05/2011 0.29" 0.26" 0.00" 0.26" 101.1° 63.4° 83.3° 19.7% 3.6 MPH 328.3w/m2
08/06/2011 0.27" 0.24" 0.00" 0.24" 99.6° 53.8° 79.9° 17.0% 3.0 MPH 333.3w/m2
08/07/2011 0.27" 0.24" 0.00" 0.24" 99.5° 58.7° 81.3° 14.7% 3.2 MPH 330.8w/m2
08/08/2011 0.27" 0.24" 0.00" 0.24" 101.0° 62.1° 82.2° 18.3% 3.3 MPH 326.5w/m2
08/09/2011 0.27" 0.23" 0.00" 0.23" 101.1° 60.5° 81.9° 20.0% 3.2 MPH 324.8w/m2
08/10/2011 0.27" 0.24" 0.00" 0.24" 100.7° 68.4° 85.0° 22.5% 3.5 MPH 312.2w/m2
08/11/2011 0.27" 0.23" 0.00" 0.23" 99.2° 64.0° 82.8° 27.3% 3.3 MPH 316.0w/m2
08/12/2011 0.24" 0.21" 0.00" 0.21" 99.9° 60.0° 81.7° 26.3% 2.8 MPH 285.4w/m2
08/13/2011 0.21" 0.18" 0.00" 0.18" 96.7° 62.4° 80.7° 30.7% 3.5 MPH 203.9w/m2
08/14/2011 0.25" 0.22" 0.00" 0.22" 99.7° 67.1° 84.0° 35.4% 3.0 MPH 285.0w/m2
08/15/2011 0.28" 0.24" 0.00" 0.24" 101.9° 68.9° 88.4° 26.3% 3.8 MPH 302.9w/m2
08/16/2011 0.26" 0.22" 0.00" 0.22" 101.2° 62.3° 83.0° 23.1% 3.1 MPH 311.1w/m2
08/17/2011 0.25" 0.21" 0.00" 0.21" 103.9° 61.7° 84.1° 25.2% 2.8 MPH 303.3w/m2
08/18/2011 0.26" 0.22" 0.00" 0.22" 104.2° 69.6° 87.2° 25.9% 3.2 MPH 296.4w/m2
08/19/2011 0.26" 0.22" 0.00" 0.22" 99.7° 76.0° 88.8° 28.6% 3.9 MPH 286.5w/m2
08/20/2011 0.26" 0.22" 0.00" 0.22" 100.4° 70.4° 86.9° 29.5% 3.4 MPH 293.0w/m2
08/21/2011 0.24" 0.20" 0.00" 0.20" 100.8° 62.8° 82.8° 26.6% 2.9 MPH 283.0w/m2
08/22/2011 0.25" 0.20" 0.00" 0.20" 102.7° 63.6° 83.6° 26.8% 2.9 MPH 292.2w/m2
08/23/2011 0.24" 0.20" 0.00" 0.20" 105.2° 61.4° 85.1° 27.0% 2.8 MPH 290.3w/m2
08/24/2011 0.26" 0.21" 0.00" 0.21" 106.3° 68.5° 89.6° 22.2% 3.4 MPH 283.2w/m2
08/25/2011 0.26" 0.21" 0.00" 0.21" 105.4° 76.0° 92.6° 21.5% 3.4 MPH 281.5w/m2
08/26/2011 0.25" 0.20" 0.00" 0.20" 104.0° 82.5° 91.9° 24.9% 4.1 MPH 232.1w/m2
08/27/2011 0.20" 0.16" 0.00" 0.16" 101.8° 74.6° 88.0° 34.2% 2.7 MPH 220.4w/m2
08/28/2011 0.27" 0.22" 0.00" 0.22" 101.8° 75.9° 88.7° 30.3% 4.3 MPH 272.4w/m2
08/29/2011 0.24" 0.19" 0.00" 0.19" 102.1° 70.8° 87.6° 30.3% 3.6 MPH 266.8w/m2
08/30/2011 0.26" 0.21" 0.00" 0.21" 102.3° 71.6° 88.5° 25.5% 4.0 MPH 266.1w/m2
08/31/2011 0.30" 0.24" 0.00" 0.24" 101.5° 65.7° 86.5° 20.8% 5.1 MPH 280.4w/m2
Totals: 7.94" 6.74" 0.00" 6.74" 106.3° 53.8° 85.4° 26.6% 3.3 MPH 290.0w/m2